createdAt,value
2023-02-24T00:00:38.558Z,4.37
2023-02-24T00:03:11.728Z,5.13
2023-02-24T00:05:44.377Z,4.70
2023-02-24T00:08:13.961Z,4.33
2023-02-24T00:10:41.827Z,5.10
2023-02-24T00:13:12.242Z,4.80
2023-02-24T00:15:40.688Z,3.87
2023-02-24T00:18:08.541Z,3.90
2023-02-24T00:20:37.398Z,3.80
2023-02-24T00:23:05.440Z,4.00
2023-02-24T00:25:34.645Z,3.70
2023-02-24T00:28:02.604Z,3.60
2023-02-24T00:30:33.236Z,4.13
2023-02-24T00:33:02.937Z,4.17
2023-02-24T00:35:30.852Z,3.63
2023-02-24T00:37:58.800Z,3.53
2023-02-24T00:40:26.848Z,3.80
2023-02-24T00:42:56.178Z,3.70
2023-02-24T00:45:24.061Z,3.20
2023-02-24T00:47:51.960Z,4.03
2023-02-24T00:50:20.229Z,3.57
2023-02-24T00:52:49.819Z,3.87
2023-02-24T00:55:19.277Z,4.03
2023-02-24T00:57:47.236Z,4.07
2023-02-24T01:00:20.029Z,3.83
2023-02-24T01:02:47.963Z,5.27
2023-02-24T01:05:16.115Z,4.17
2023-02-24T01:07:44.154Z,4.17
2023-02-24T01:10:13.077Z,3.37
2023-02-24T01:12:49.812Z,3.50
2023-02-24T01:15:21.779Z,3.90
2023-02-24T01:17:49.706Z,4.03
2023-02-24T01:20:18.576Z,4.60
2023-02-24T01:22:48.140Z,3.90
2023-02-24T01:25:16.245Z,4.17
2023-02-24T01:27:44.179Z,3.87
2023-02-24T01:30:16.125Z,3.43
2023-02-24T01:32:46.968Z,3.37
2023-02-24T01:35:15.872Z,2.97
2023-02-24T01:37:45.488Z,2.83
2023-02-24T01:40:21.573Z,3.37
2023-02-24T01:42:50.485Z,3.13
2023-02-24T01:45:25.501Z,3.43
2023-02-24T01:48:01.319Z,3.20
2023-02-24T01:50:30.004Z,3.83
2023-02-24T01:53:02.313Z,3.57
2023-02-24T01:55:34.554Z,3.37
2023-02-24T01:58:06.668Z,3.20
2023-02-24T02:00:45.559Z,3.40
2023-02-24T02:03:30.852Z,3.20
2023-02-24T02:06:02.420Z,3.30
2023-02-24T02:08:31.194Z,3.10
2023-02-24T02:11:04.383Z,3.47
2023-02-24T02:13:35.867Z,3.23
2023-02-24T02:16:33.648Z,3.90
2023-02-24T02:19:24.990Z,3.03
2023-02-24T02:22:08.441Z,3.10
2023-02-24T02:24:49.495Z,3.67
2023-02-24T02:27:58.203Z,3.67
2023-02-24T02:30:55.507Z,3.37
2023-02-24T02:34:09.427Z,3.23
2023-02-24T02:36:48.989Z,2.83
2023-02-24T02:39:29.084Z,3.27
2023-02-24T02:42:04.928Z,3.50
2023-02-24T02:44:40.016Z,3.60
2023-02-24T02:47:14.245Z,3.40
2023-02-24T02:49:46.724Z,3.43
2023-02-24T02:52:22.206Z,3.07
2023-02-24T02:54:54.164Z,3.00
2023-02-24T02:57:26.264Z,3.67
2023-02-24T03:00:00.255Z,3.70
2023-02-24T03:02:40.036Z,3.37
2023-02-24T03:05:11.548Z,3.60
2023-02-24T03:07:42.937Z,3.40
2023-02-24T03:10:20.951Z,3.63
2023-02-24T03:12:52.910Z,3.70
2023-02-24T03:15:24.545Z,4.73
2023-02-24T03:17:57.106Z,4.33
2023-02-24T03:20:32.861Z,4.70
2023-02-24T03:23:05.010Z,4.60
2023-02-24T03:25:44.642Z,4.87
2023-02-24T03:28:17.618Z,4.73
2023-02-24T03:30:49.164Z,4.60
2023-02-24T03:33:24.246Z,5.03
2023-02-24T03:35:54.071Z,4.90
2023-02-24T03:38:24.499Z,4.80
2023-02-24T03:40:53.463Z,4.37
2023-02-24T03:43:26.862Z,5.47
2023-02-24T03:45:56.380Z,4.27
2023-02-24T03:48:26.135Z,4.13
2023-02-24T03:50:56.393Z,4.30
2023-02-24T03:53:39.422Z,4.47
2023-02-24T03:56:22.796Z,4.70
2023-02-24T03:59:05.877Z,4.30
2023-02-24T04:01:43.250Z,4.53
2023-02-24T04:04:19.222Z,4.37
2023-02-24T04:06:56.515Z,3.80
2023-02-24T04:09:33.359Z,3.47
2023-02-24T04:12:10.395Z,4.10
2023-02-24T04:14:48.700Z,3.80
2023-02-24T04:17:21.233Z,4.07
2023-02-24T04:19:54.319Z,4.27
2023-02-24T04:22:25.870Z,4.40
2023-02-24T04:24:58.204Z,3.90
2023-02-24T04:27:28.452Z,4.07
2023-02-24T04:30:01.155Z,4.10
2023-02-24T04:32:31.628Z,3.90
2023-02-24T04:35:04.574Z,4.23
2023-02-24T04:37:37.363Z,4.40
2023-02-24T04:40:10.691Z,4.50
2023-02-24T04:42:41.317Z,4.60
2023-02-24T04:45:12.963Z,4.23
2023-02-24T04:47:43.124Z,4.07
2023-02-24T04:50:12.344Z,4.63
2023-02-24T04:52:45.020Z,4.93
2023-02-24T04:55:12.940Z,4.53
2023-02-24T04:57:40.855Z,5.30
2023-02-24T05:00:21.176Z,4.50
2023-02-24T05:02:49.783Z,5.60
2023-02-24T05:05:18.552Z,6.53
2023-02-24T05:07:48.518Z,5.50
2023-02-24T05:10:18.902Z,5.53
2023-02-24T05:12:46.868Z,5.90
2023-02-24T05:15:15.014Z,6.40
2023-02-24T05:17:43.151Z,7.10
2023-02-24T05:20:29.712Z,7.03
2023-02-24T05:22:58.963Z,6.50
2023-02-24T05:25:26.943Z,6.50
2023-02-24T05:27:56.891Z,6.23
2023-02-24T05:30:25.100Z,5.93
2023-02-24T05:32:54.272Z,4.80
2023-02-24T05:35:22.237Z,4.13
2023-02-24T05:37:50.069Z,4.60
2023-02-24T05:40:23.544Z,4.40
2023-02-24T05:42:51.926Z,5.07
2023-02-24T05:45:19.890Z,5.30
2023-02-24T05:47:48.564Z,4.23
2023-02-24T05:50:17.683Z,4.10
2023-02-24T05:52:45.861Z,4.20
2023-02-24T05:55:14.211Z,3.27
2023-02-24T05:57:43.858Z,3.27
2023-02-24T06:00:16.359Z,2.93
2023-02-24T06:02:49.630Z,3.17
2023-02-24T06:05:26.569Z,2.50
2023-02-24T06:08:04.388Z,2.67
2023-02-24T06:10:34.812Z,2.80
2023-02-24T06:13:04.330Z,2.50
2023-02-24T06:15:32.416Z,2.07
2023-02-24T06:18:02.113Z,1.60
2023-02-24T06:20:33.097Z,2.07
2023-02-24T06:23:02.342Z,1.50
2023-02-24T06:25:33.386Z,1.90
2023-02-24T06:28:01.903Z,1.60
2023-02-24T06:30:32.923Z,1.20
2023-02-24T06:33:00.867Z,1.30
2023-02-24T06:35:28.713Z,1.60
2023-02-24T06:37:56.958Z,1.60
2023-02-24T06:40:24.879Z,2.00
2023-02-24T06:42:55.074Z,1.80
2023-02-24T06:45:24.322Z,2.00
2023-02-24T06:47:53.796Z,1.43
2023-02-24T06:50:21.903Z,2.00
2023-02-24T06:52:50.897Z,2.00
2023-02-24T06:55:26.329Z,1.50
2023-02-24T06:57:58.051Z,1.23
2023-02-24T07:00:37.357Z,1.30
2023-02-24T07:03:15.813Z,1.43
2023-02-24T07:05:50.404Z,2.27
2023-02-24T07:08:21.181Z,2.57
2023-02-24T07:10:54.509Z,2.17
2023-02-24T07:13:22.801Z,2.00
2023-02-24T07:15:51.146Z,2.50
2023-02-24T07:18:20.743Z,2.20
2023-02-24T07:20:48.650Z,2.37
2023-02-24T07:23:17.782Z,2.10
2023-02-24T07:25:46.981Z,2.67
2023-02-24T07:28:16.554Z,2.77
2023-02-24T07:30:44.430Z,2.70
2023-02-24T07:33:14.471Z,2.57
2023-02-24T07:35:44.066Z,2.60
2023-02-24T07:38:17.234Z,2.27
2023-02-24T07:40:47.642Z,2.47
2023-02-24T07:43:16.022Z,2.77
2023-02-24T07:45:43.985Z,2.60
2023-02-24T07:48:12.579Z,2.87
2023-02-24T07:50:43.615Z,2.40
2023-02-24T07:53:11.565Z,2.33
2023-02-24T07:55:40.507Z,2.53
2023-02-24T07:58:10.788Z,2.40
2023-02-24T08:00:58.826Z,2.30
2023-02-24T08:03:30.497Z,2.30
2023-02-24T08:06:13.089Z,1.80
2023-02-24T08:08:57.879Z,1.97
2023-02-24T08:11:27.871Z,2.00
2023-02-24T08:13:57.938Z,1.83
2023-02-24T08:16:34.616Z,2.10
2023-02-24T08:19:03.525Z,2.70
2023-02-24T08:21:38.337Z,2.47
2023-02-24T08:24:06.996Z,2.60
2023-02-24T08:26:44.882Z,2.63
2023-02-24T08:29:13.683Z,3.00
2023-02-24T08:31:43.210Z,3.20
2023-02-24T08:34:11.345Z,2.93
2023-02-24T08:36:40.637Z,2.97
2023-02-24T08:39:08.453Z,2.80
2023-02-24T08:41:51.616Z,2.67
2023-02-24T08:44:20.498Z,2.40
2023-02-24T08:46:50.366Z,2.60
2023-02-24T08:49:19.189Z,2.40
2023-02-24T08:51:52.980Z,2.53
2023-02-24T08:54:27.567Z,2.53
2023-02-24T08:56:56.989Z,2.47
2023-02-24T08:59:40.487Z,2.70
2023-02-24T09:02:31.209Z,2.70
2023-02-24T09:05:03.650Z,2.63
2023-02-24T09:07:36.673Z,2.53
2023-02-24T09:10:11.695Z,2.50
2023-02-24T09:12:41.345Z,2.40
2023-02-24T09:15:11.551Z,2.43
2023-02-24T09:17:50.422Z,2.10
2023-02-24T09:20:51.965Z,2.30
2023-02-24T09:23:21.320Z,2.07
2023-02-24T09:25:54.430Z,2.20
2023-02-24T09:28:25.155Z,2.30
2023-02-24T09:30:54.504Z,1.37
2023-02-24T09:33:25.587Z,1.60
2023-02-24T09:36:03.301Z,1.60
2023-02-24T09:38:50.312Z,1.43
2023-02-24T09:41:32.243Z,1.33
2023-02-24T09:44:07.921Z,1.30
2023-02-24T09:46:54.170Z,1.60
2023-02-24T09:49:25.326Z,1.87
2023-02-24T09:52:00.621Z,1.90
2023-02-24T09:54:35.416Z,1.77
2023-02-24T09:57:16.894Z,1.80
2023-02-24T10:00:22.173Z,1.70
2023-02-24T10:03:03.937Z,1.70
2023-02-24T10:05:39.487Z,1.53
2023-02-24T10:08:18.123Z,2.43
2023-02-24T10:11:07.131Z,2.60
2023-02-24T10:13:38.907Z,1.70
2023-02-24T10:16:15.668Z,1.60
2023-02-24T10:18:48.577Z,1.90
2023-02-24T10:21:30.889Z,1.80
2023-02-24T10:24:15.505Z,1.50
2023-02-24T10:27:00.877Z,1.77
2023-02-24T10:30:01.158Z,1.20
2023-02-24T10:32:42.339Z,1.20
2023-02-24T10:35:17.643Z,1.03
2023-02-24T10:37:45.925Z,1.10
2023-02-24T10:40:26.430Z,1.03
2023-02-24T10:43:10.675Z,0.90
2023-02-24T10:45:45.436Z,0.80
2023-02-24T10:48:41.524Z,1.33
2023-02-24T10:51:19.985Z,0.90
2023-02-24T10:54:10.144Z,0.60
2023-02-24T10:56:44.549Z,1.00
2023-02-24T10:59:42.021Z,1.10
2023-02-24T11:02:29.578Z,0.90
2023-02-24T11:05:17.019Z,2.23
2023-02-24T11:07:53.626Z,1.20
2023-02-24T11:10:32.548Z,0.83
2023-02-24T11:13:19.542Z,1.13
2023-02-24T11:16:09.622Z,1.00
2023-02-24T11:18:39.248Z,1.03
2023-02-24T11:21:09.983Z,1.03
2023-02-24T11:23:42.307Z,1.60
2023-02-24T11:26:16.912Z,1.30
2023-02-24T11:29:00.863Z,0.83
2023-02-24T11:31:41.528Z,0.80
2023-02-24T11:34:17.042Z,1.00
2023-02-24T11:36:54.621Z,0.70
2023-02-24T11:39:42.348Z,0.80
2023-02-24T11:42:14.773Z,0.90
2023-02-24T11:44:51.962Z,1.10
2023-02-24T11:47:27.355Z,1.23
2023-02-24T11:50:04.749Z,1.40
2023-02-24T11:52:36.905Z,1.67
2023-02-24T11:55:14.814Z,1.33
2023-02-24T11:57:45.715Z,1.20
2023-02-24T12:00:20.439Z,0.67
2023-02-24T12:02:56.170Z,0.70
2023-02-24T12:05:28.528Z,1.50
2023-02-24T12:08:02.923Z,1.00
2023-02-24T12:10:34.645Z,0.77
2023-02-24T12:13:14.098Z,0.90
2023-02-24T12:15:47.078Z,1.53
2023-02-24T12:18:21.147Z,1.10
2023-02-24T12:20:51.974Z,1.10
2023-02-24T12:23:24.954Z,0.83
2023-02-24T12:26:06.979Z,0.60
2023-02-24T12:28:51.300Z,0.77
2023-02-24T12:31:27.466Z,1.00
2023-02-24T12:34:08.691Z,0.70
2023-02-24T12:36:54.393Z,0.80
2023-02-24T12:39:23.611Z,0.77
2023-02-24T12:42:02.155Z,0.87
2023-02-24T12:44:42.826Z,0.90
2023-02-24T12:47:14.102Z,0.80
2023-02-24T12:49:59.519Z,0.80
2023-02-24T12:52:35.057Z,0.93
2023-02-24T12:55:11.516Z,1.37
2023-02-24T12:57:49.318Z,1.20
2023-02-24T13:00:26.104Z,1.10
2023-02-24T13:03:02.795Z,0.90
2023-02-24T13:05:38.033Z,0.90
2023-02-24T13:08:19.586Z,0.97
2023-02-24T13:10:51.922Z,0.87
2023-02-24T13:13:26.579Z,1.07
2023-02-24T13:15:56.232Z,1.07
2023-02-24T13:18:30.193Z,0.83
2023-02-24T13:21:08.427Z,0.67
2023-02-24T13:23:38.008Z,0.97
2023-02-24T13:26:06.086Z,1.33
2023-02-24T13:28:38.629Z,1.10
2023-02-24T13:31:09.709Z,1.23
2023-02-24T13:33:39.680Z,1.20
2023-02-24T13:36:15.805Z,1.10
2023-02-24T13:38:45.821Z,0.90
2023-02-24T13:41:38.356Z,1.37
2023-02-24T13:44:28.256Z,0.80
2023-02-24T13:47:40.709Z,1.20
2023-02-24T13:50:33.692Z,1.03
2023-02-24T13:53:25.752Z,1.30
2023-02-24T13:56:09.960Z,1.40
2023-02-24T13:59:13.274Z,0.90
2023-02-24T14:01:50.796Z,0.73
2023-02-24T14:04:24.464Z,1.17
2023-02-24T14:06:55.008Z,1.00
2023-02-24T14:09:28.053Z,0.80
2023-02-24T14:12:01.034Z,1.20
2023-02-24T14:14:30.486Z,0.80
2023-02-24T14:16:58.527Z,1.10
2023-02-24T14:19:27.517Z,1.10
2023-02-24T14:21:57.575Z,1.10
2023-02-24T14:24:29.303Z,0.80
2023-02-24T14:26:59.774Z,0.90
2023-02-24T14:29:32.162Z,1.03
2023-02-24T14:32:01.417Z,0.97
2023-02-24T14:34:34.037Z,0.83
2023-02-24T14:37:04.798Z,1.17
2023-02-24T14:39:35.336Z,2.20
2023-02-24T14:42:13.514Z,1.00
2023-02-24T14:44:44.070Z,1.00
2023-02-24T14:47:15.345Z,0.90
2023-02-24T14:49:52.532Z,0.90
2023-02-24T14:52:31.585Z,1.50
2023-02-24T14:55:07.317Z,0.77
2023-02-24T14:57:39.372Z,1.03
2023-02-24T15:00:11.968Z,0.80
2023-02-24T15:02:44.970Z,1.10
2023-02-24T15:05:13.380Z,1.03
2023-02-24T15:07:45.453Z,1.13
2023-02-24T15:10:22.735Z,1.43
2023-02-24T15:12:54.831Z,1.33
2023-02-24T15:15:24.968Z,0.90
2023-02-24T15:17:57.849Z,1.00
2023-02-24T15:20:28.423Z,0.93
2023-02-24T15:22:56.845Z,0.90
2023-02-24T15:25:41.841Z,1.00
2023-02-24T15:28:24.445Z,0.80
2023-02-24T15:31:05.820Z,1.10
2023-02-24T15:33:40.246Z,1.27
2023-02-24T15:36:12.624Z,0.87
2023-02-24T15:38:43.352Z,0.93
2023-02-24T15:41:15.056Z,1.13
2023-02-24T15:43:50.252Z,1.67
2023-02-24T15:46:25.666Z,1.87
2023-02-24T15:48:55.655Z,1.10
2023-02-24T15:51:32.012Z,1.30
2023-02-24T15:54:02.375Z,2.17
2023-02-24T15:56:34.086Z,1.30
2023-02-24T15:59:02.666Z,1.40
2023-02-24T16:01:32.796Z,1.23
2023-02-24T16:04:01.601Z,1.40
2023-02-24T16:06:30.323Z,1.30
2023-02-24T16:08:59.335Z,1.37
2023-02-24T16:11:30.201Z,1.30
2023-02-24T16:14:01.818Z,1.33
2023-02-24T16:16:30.025Z,1.43
2023-02-24T16:18:57.959Z,1.37
2023-02-24T16:21:26.097Z,1.23
2023-02-24T16:23:53.969Z,1.40
2023-02-24T16:26:24.148Z,1.30
2023-02-24T16:28:55.350Z,1.40
2023-02-24T16:31:26.309Z,1.20
2023-02-24T16:33:56.069Z,1.50
2023-02-24T16:36:25.551Z,1.23
2023-02-24T16:38:53.716Z,0.93
2023-02-24T16:41:21.900Z,0.80
2023-02-24T16:43:49.962Z,1.03
2023-02-24T16:46:20.347Z,1.00
2023-02-24T16:48:53.599Z,1.07
2023-02-24T16:51:22.843Z,1.00
2023-02-24T16:53:50.807Z,1.13
2023-02-24T16:56:18.804Z,1.00
2023-02-24T16:58:46.748Z,1.20
2023-02-24T17:01:20.429Z,0.97
2023-02-24T17:03:51.835Z,1.17
2023-02-24T17:06:22.107Z,0.90
2023-02-24T17:08:50.677Z,1.20
2023-02-24T17:11:21.955Z,0.97
2023-02-24T17:13:50.075Z,1.50
2023-02-24T17:16:18.006Z,1.23
2023-02-24T17:18:45.866Z,1.20
2023-02-24T17:21:16.163Z,1.27
2023-02-24T17:23:44.166Z,0.80
2023-02-24T17:26:15.060Z,1.37
2023-02-24T17:28:43.465Z,1.10
2023-02-24T17:31:11.485Z,1.10
2023-02-24T17:33:39.815Z,1.10
2023-02-24T17:36:07.898Z,1.13
2023-02-24T17:38:37.276Z,1.60
2023-02-24T17:41:05.416Z,1.27
2023-02-24T17:43:33.238Z,1.23
2023-02-24T17:46:06.491Z,1.00
2023-02-24T17:48:35.055Z,1.20
2023-02-24T17:51:02.863Z,1.00
2023-02-24T17:53:31.303Z,1.00
2023-02-24T17:56:04.820Z,1.10
2023-02-24T17:58:33.756Z,1.30
2023-02-24T18:01:02.725Z,0.83
2023-02-24T18:03:30.809Z,1.10
2023-02-24T18:06:00.502Z,1.40
2023-02-24T18:08:28.574Z,1.63
2023-02-24T18:10:56.654Z,1.20
2023-02-24T18:13:26.312Z,1.00
2023-02-24T18:15:54.291Z,1.33
2023-02-24T18:18:22.231Z,1.30
2023-02-24T18:20:50.156Z,1.40
2023-02-24T18:23:18.079Z,1.00
2023-02-24T18:25:46.165Z,1.00
2023-02-24T18:28:14.028Z,1.00
2023-02-24T18:30:43.347Z,1.17
2023-02-24T18:33:11.531Z,1.23
2023-02-24T18:35:40.110Z,1.10
2023-02-24T18:38:08.086Z,1.10
2023-02-24T18:40:36.047Z,1.23
2023-02-24T18:43:03.948Z,0.90
2023-02-24T18:45:32.760Z,1.07
2023-02-24T18:48:05.140Z,1.50
2023-02-24T18:50:34.290Z,1.53
2023-02-24T18:53:02.396Z,1.43
2023-02-24T18:55:30.326Z,1.40
2023-02-24T18:57:58.152Z,1.30
2023-02-24T19:00:26.291Z,1.17
2023-02-24T19:02:54.264Z,1.30
2023-02-24T19:05:24.941Z,1.70
2023-02-24T19:07:53.943Z,1.40
2023-02-24T19:10:21.846Z,1.30
2023-02-24T19:12:51.086Z,1.20
2023-02-24T19:15:20.034Z,1.10
2023-02-24T19:17:48.037Z,1.00
2023-02-24T19:20:16.010Z,1.40
2023-02-24T19:22:45.434Z,1.27
2023-02-24T19:25:13.704Z,1.17
2023-02-24T19:27:41.528Z,1.17
2023-02-24T19:30:10.785Z,1.20
2023-02-24T19:32:38.762Z,1.07
2023-02-24T19:35:07.711Z,1.10
2023-02-24T19:37:36.193Z,1.20
2023-02-24T19:40:05.896Z,1.53
2023-02-24T19:42:33.794Z,1.50
2023-02-24T19:45:01.764Z,0.90
2023-02-24T19:47:29.703Z,1.67
2023-02-24T19:49:57.519Z,1.80
2023-02-24T19:52:25.814Z,1.10
2023-02-24T19:54:54.430Z,1.30
2023-02-24T19:57:23.609Z,1.40
2023-02-24T19:59:52.502Z,1.60
2023-02-24T20:02:20.536Z,1.30
2023-02-24T20:04:48.424Z,1.30
2023-02-24T20:07:16.509Z,1.27
2023-02-24T20:09:44.628Z,1.30
2023-02-24T20:12:12.560Z,1.53
2023-02-24T20:14:41.985Z,1.57
2023-02-24T20:17:12.942Z,1.40
2023-02-24T20:19:41.032Z,1.70
2023-02-24T20:22:08.974Z,1.53
2023-02-24T20:24:37.016Z,1.60
2023-02-24T20:27:05.696Z,1.57
2023-02-24T20:29:35.318Z,1.70
2023-02-24T20:32:05.084Z,1.43
2023-02-24T20:34:33.154Z,1.10
2023-02-24T20:37:01.029Z,1.50
2023-02-24T20:39:29.062Z,1.60
2023-02-24T20:41:57.045Z,1.50
2023-02-24T20:44:24.999Z,1.60
2023-02-24T20:46:53.003Z,1.43
2023-02-24T20:49:23.749Z,1.50
2023-02-24T20:51:51.806Z,1.33
2023-02-24T20:54:19.908Z,1.20
2023-02-24T20:56:48.168Z,1.43
2023-02-24T20:59:18.656Z,1.57
2023-02-24T21:01:48.317Z,1.43
2023-02-24T21:04:18.765Z,1.60
2023-02-24T21:06:49.064Z,1.50
2023-02-24T21:09:17.336Z,1.37
2023-02-24T21:11:45.298Z,1.20
2023-02-24T21:14:16.445Z,1.40
2023-02-24T21:16:46.179Z,1.57
2023-02-24T21:19:14.269Z,1.37
2023-02-24T21:21:42.242Z,1.77
2023-02-24T21:24:11.648Z,1.53
2023-02-24T21:26:39.493Z,1.43
2023-02-24T21:29:07.968Z,1.50
2023-02-24T21:31:36.037Z,2.47
2023-02-24T21:34:03.951Z,1.40
2023-02-24T21:36:32.144Z,1.50
2023-02-24T21:39:01.045Z,1.60
2023-02-24T21:41:30.227Z,1.43
2023-02-24T21:44:00.700Z,1.30
2023-02-24T21:46:29.102Z,1.40
2023-02-24T21:48:58.383Z,1.30
2023-02-24T21:51:27.853Z,1.20
2023-02-24T21:53:56.940Z,1.40
2023-02-24T21:56:27.348Z,1.50
2023-02-24T21:58:59.349Z,1.60
2023-02-24T22:01:29.213Z,1.47
2023-02-24T22:03:58.880Z,1.30
2023-02-24T22:06:30.245Z,1.40
2023-02-24T22:08:59.495Z,2.77
2023-02-24T22:11:27.350Z,1.37
2023-02-24T22:13:56.640Z,1.73
2023-02-24T22:16:26.787Z,1.33
2023-02-24T22:18:58.409Z,1.33
2023-02-24T22:21:29.321Z,1.30
2023-02-24T22:23:59.325Z,1.57
2023-02-24T22:26:27.672Z,1.70
2023-02-24T22:28:57.880Z,1.50
2023-02-24T22:31:28.393Z,1.67
2023-02-24T22:33:56.810Z,1.80
2023-02-24T22:36:27.150Z,1.63
2023-02-24T22:38:57.158Z,1.90
2023-02-24T22:41:27.175Z,1.23
2023-02-24T22:43:56.537Z,1.47
2023-02-24T22:46:27.563Z,1.20
2023-02-24T22:48:56.280Z,1.50
2023-02-24T22:51:25.017Z,1.50
2023-02-24T22:53:53.423Z,1.90
2023-02-24T22:56:24.081Z,1.60
2023-02-24T22:58:52.421Z,1.47
2023-02-24T23:01:24.591Z,1.60
2023-02-24T23:03:52.684Z,1.50
2023-02-24T23:06:23.483Z,1.60
2023-02-24T23:08:53.214Z,1.30
2023-02-24T23:11:24.993Z,1.40
2023-02-24T23:13:53.283Z,1.33
2023-02-24T23:16:25.213Z,1.60
2023-02-24T23:18:54.063Z,1.37
2023-02-24T23:21:24.940Z,1.50
2023-02-24T23:23:57.119Z,1.83
2023-02-24T23:26:30.326Z,1.87
2023-02-24T23:28:58.339Z,1.50
2023-02-24T23:31:28.382Z,1.90
2023-02-24T23:33:58.690Z,1.70
2023-02-24T23:36:27.392Z,1.80
2023-02-24T23:38:55.240Z,1.57
2023-02-24T23:41:23.212Z,1.77
2023-02-24T23:43:51.203Z,1.77
2023-02-24T23:46:19.206Z,1.73
2023-02-24T23:48:52.479Z,1.93
2023-02-24T23:51:20.649Z,1.40
2023-02-24T23:53:48.947Z,1.70
2023-02-24T23:56:19.393Z,1.50
2023-02-24T23:58:50.872Z,2.10
